sensor_id;sensor_type;location;lat;lon;timestamp;temperature;humidity
40257;DHT22;25977;45.462;9.210;2023-08-30T00:00:09;22.00;81.90
40257;DHT22;25977;45.462;9.210;2023-08-30T00:02:35;21.90;81.90
40257;DHT22;25977;45.462;9.210;2023-08-30T00:05:03;21.90;82.00
40257;DHT22;25977;45.462;9.210;2023-08-30T00:07:29;21.90;82.10
40257;DHT22;25977;45.462;9.210;2023-08-30T00:09:58;21.90;82.10
40257;DHT22;25977;45.462;9.210;2023-08-30T00:12:24;21.80;82.10
40257;DHT22;25977;45.462;9.210;2023-08-30T00:14:50;21.80;82.30
40257;DHT22;25977;45.462;9.210;2023-08-30T00:17:16;21.80;82.40
40257;DHT22;25977;45.462;9.210;2023-08-30T00:19:41;21.80;82.60
40257;DHT22;25977;45.462;9.210;2023-08-30T00:22:07;21.80;82.70
40257;DHT22;25977;45.462;9.210;2023-08-30T00:24:33;21.80;82.90
40257;DHT22;25977;45.462;9.210;2023-08-30T00:27:00;21.80;83.00
40257;DHT22;25977;45.462;9.210;2023-08-30T00:29:28;21.80;83.00
40257;DHT22;25977;45.462;9.210;2023-08-30T00:31:53;21.80;83.20
40257;DHT22;25977;45.462;9.210;2023-08-30T00:34:19;21.70;83.20
40257;DHT22;25977;45.462;9.210;2023-08-30T00:36:48;21.80;83.20
40257;DHT22;25977;45.462;9.210;2023-08-30T00:39:14;21.70;83.10
40257;DHT22;25977;45.462;9.210;2023-08-30T00:41:40;21.70;83.50
40257;DHT22;25977;45.462;9.210;2023-08-30T00:44:06;21.70;83.40
40257;DHT22;25977;45.462;9.210;2023-08-30T00:46:32;21.70;83.50
40257;DHT22;25977;45.462;9.210;2023-08-30T00:48:59;21.70;83.60
40257;DHT22;25977;45.462;9.210;2023-08-30T00:51:26;21.70;83.70
40257;DHT22;25977;45.462;9.210;2023-08-30T00:53:54;21.70;83.50
40257;DHT22;25977;45.462;9.210;2023-08-30T00:56:21;21.70;83.50
40257;DHT22;25977;45.462;9.210;2023-08-30T00:58:50;21.70;83.50
40257;DHT22;25977;45.462;9.210;2023-08-30T01:01:17;21.70;83.60
40257;DHT22;25977;45.462;9.210;2023-08-30T01:03:43;21.70;83.60
40257;DHT22;25977;45.462;9.210;2023-08-30T01:06:09;21.70;83.70
40257;DHT22;25977;45.462;9.210;2023-08-30T01:08:37;21.60;83.60
40257;DHT22;25977;45.462;9.210;2023-08-30T01:11:16;21.60;84.30
40257;DHT22;25977;45.462;9.210;2023-08-30T01:13:54;21.60;84.00
40257;DHT22;25977;45.462;9.210;2023-08-30T01:16:21;21.60;84.40
40257;DHT22;25977;45.462;9.210;2023-08-30T01:18:55;21.60;84.90
40257;DHT22;25977;45.462;9.210;2023-08-30T01:21:32;21.50;85.00
40257;DHT22;25977;45.462;9.210;2023-08-30T01:24:06;21.60;85.40
40257;DHT22;25977;45.462;9.210;2023-08-30T01:26:45;21.50;85.70
40257;DHT22;25977;45.462;9.210;2023-08-30T01:29:16;21.50;85.80
40257;DHT22;25977;45.462;9.210;2023-08-30T01:31:45;21.50;85.60
40257;DHT22;25977;45.462;9.210;2023-08-30T01:34:12;21.50;85.70
40257;DHT22;25977;45.462;9.210;2023-08-30T01:36:41;21.40;85.60
40257;DHT22;25977;45.462;9.210;2023-08-30T01:39:10;21.40;85.70
40257;DHT22;25977;45.462;9.210;2023-08-30T01:41:36;21.50;85.70
40257;DHT22;25977;45.462;9.210;2023-08-30T01:44:03;21.50;85.70
40257;DHT22;25977;45.462;9.210;2023-08-30T01:46:32;21.50;85.60
40257;DHT22;25977;45.462;9.210;2023-08-30T01:49:00;21.60;85.60
40257;DHT22;25977;45.462;9.210;2023-08-30T01:51:27;21.60;85.50
40257;DHT22;25977;45.462;9.210;2023-08-30T01:53:54;21.60;85.70
40257;DHT22;25977;45.462;9.210;2023-08-30T01:56:20;21.60;85.70
40257;DHT22;25977;45.462;9.210;2023-08-30T01:58:46;21.60;85.50
40257;DHT22;25977;45.462;9.210;2023-08-30T02:01:11;21.60;85.10
40257;DHT22;25977;45.462;9.210;2023-08-30T02:03:37;21.60;85.00
40257;DHT22;25977;45.462;9.210;2023-08-30T02:06:13;21.60;85.10
40257;DHT22;25977;45.462;9.210;2023-08-30T02:11:19;21.60;85.00
40257;DHT22;25977;45.462;9.210;2023-08-30T02:13:46;21.60;85.20
40257;DHT22;25977;45.462;9.210;2023-08-30T02:16:13;21.60;84.90
40257;DHT22;25977;45.462;9.210;2023-08-30T02:18:41;21.60;84.90
40257;DHT22;25977;45.462;9.210;2023-08-30T02:21:07;21.60;84.80
40257;DHT22;25977;45.462;9.210;2023-08-30T02:23:33;21.60;84.70
40257;DHT22;25977;45.462;9.210;2023-08-30T02:25:58;21.60;84.70
40257;DHT22;25977;45.462;9.210;2023-08-30T02:28:24;21.60;84.60
40257;DHT22;25977;45.462;9.210;2023-08-30T02:30:52;21.60;84.50
40257;DHT22;25977;45.462;9.210;2023-08-30T02:33:18;21.60;84.60
40257;DHT22;25977;45.462;9.210;2023-08-30T02:35:44;21.60;84.70
40257;DHT22;25977;45.462;9.210;2023-08-30T02:38:10;21.60;84.60
40257;DHT22;25977;45.462;9.210;2023-08-30T02:40:36;21.70;84.60
40257;DHT22;25977;45.462;9.210;2023-08-30T02:43:02;21.60;84.60
40257;DHT22;25977;45.462;9.210;2023-08-30T02:45:27;21.70;84.60
40257;DHT22;25977;45.462;9.210;2023-08-30T02:47:55;21.70;84.60
40257;DHT22;25977;45.462;9.210;2023-08-30T02:50:23;21.70;84.50
40257;DHT22;25977;45.462;9.210;2023-08-30T02:52:48;21.70;84.40
40257;DHT22;25977;45.462;9.210;2023-08-30T02:55:14;21.70;84.30
40257;DHT22;25977;45.462;9.210;2023-08-30T02:57:40;21.70;84.30
40257;DHT22;25977;45.462;9.210;2023-08-30T03:00:06;21.70;84.40
40257;DHT22;25977;45.462;9.210;2023-08-30T03:02:32;21.70;84.80
40257;DHT22;25977;45.462;9.210;2023-08-30T03:04:59;21.70;85.00
40257;DHT22;25977;45.462;9.210;2023-08-30T03:07:25;21.70;85.20
40257;DHT22;25977;45.462;9.210;2023-08-30T03:09:53;21.70;85.40
40257;DHT22;25977;45.462;9.210;2023-08-30T03:12:19;21.70;85.70
40257;DHT22;25977;45.462;9.210;2023-08-30T03:14:46;21.70;86.00
40257;DHT22;25977;45.462;9.210;2023-08-30T03:17:12;21.70;86.10
40257;DHT22;25977;45.462;9.210;2023-08-30T03:19:38;21.70;86.30
40257;DHT22;25977;45.462;9.210;2023-08-30T03:22:04;21.70;86.60
40257;DHT22;25977;45.462;9.210;2023-08-30T03:24:30;21.50;86.90
40257;DHT22;25977;45.462;9.210;2023-08-30T03:26:56;21.50;87.20
40257;DHT22;25977;45.462;9.210;2023-08-30T03:29:22;21.50;87.10
40257;DHT22;25977;45.462;9.210;2023-08-30T03:31:48;21.50;87.10
40257;DHT22;25977;45.462;9.210;2023-08-30T03:34:13;21.50;87.10
40257;DHT22;25977;45.462;9.210;2023-08-30T03:36:40;21.50;87.20
40257;DHT22;25977;45.462;9.210;2023-08-30T03:39:08;21.50;87.30
40257;DHT22;25977;45.462;9.210;2023-08-30T03:41:34;21.50;87.30
40257;DHT22;25977;45.462;9.210;2023-08-30T03:44:01;21.40;87.10
40257;DHT22;25977;45.462;9.210;2023-08-30T03:46:27;21.40;87.20
40257;DHT22;25977;45.462;9.210;2023-08-30T03:48:52;21.50;87.20
40257;DHT22;25977;45.462;9.210;2023-08-30T03:51:19;21.40;87.00
40257;DHT22;25977;45.462;9.210;2023-08-30T03:53:45;21.40;87.00
40257;DHT22;25977;45.462;9.210;2023-08-30T03:56:10;21.40;87.00
40257;DHT22;25977;45.462;9.210;2023-08-30T03:58:37;21.40;87.10
40257;DHT22;25977;45.462;9.210;2023-08-30T04:01:03;21.40;87.30
40257;DHT22;25977;45.462;9.210;2023-08-30T04:03:29;21.40;87.40
40257;DHT22;25977;45.462;9.210;2023-08-30T04:05:57;21.40;87.50
40257;DHT22;25977;45.462;9.210;2023-08-30T04:08:23;21.40;87.80
40257;DHT22;25977;45.462;9.210;2023-08-30T04:10:52;21.30;87.90
40257;DHT22;25977;45.462;9.210;2023-08-30T04:13:18;21.40;88.20
40257;DHT22;25977;45.462;9.210;2023-08-30T04:15:44;21.40;88.30
40257;DHT22;25977;45.462;9.210;2023-08-30T04:18:10;21.40;88.50
40257;DHT22;25977;45.462;9.210;2023-08-30T04:20:35;21.30;88.60
40257;DHT22;25977;45.462;9.210;2023-08-30T04:23:05;21.30;88.80
40257;DHT22;25977;45.462;9.210;2023-08-30T04:25:34;21.30;89.00
40257;DHT22;25977;45.462;9.210;2023-08-30T04:28:00;21.30;89.10
40257;DHT22;25977;45.462;9.210;2023-08-30T04:30:26;21.30;89.20
40257;DHT22;25977;45.462;9.210;2023-08-30T04:32:51;21.30;89.10
40257;DHT22;25977;45.462;9.210;2023-08-30T04:35:17;21.30;89.10
40257;DHT22;25977;45.462;9.210;2023-08-30T04:37:43;21.30;88.90
40257;DHT22;25977;45.462;9.210;2023-08-30T04:40:09;21.30;88.50
40257;DHT22;25977;45.462;9.210;2023-08-30T04:42:36;21.30;88.20
40257;DHT22;25977;45.462;9.210;2023-08-30T04:45:02;21.30;88.00
40257;DHT22;25977;45.462;9.210;2023-08-30T04:47:32;21.30;88.00
40257;DHT22;25977;45.462;9.210;2023-08-30T04:50:00;21.30;87.80
40257;DHT22;25977;45.462;9.210;2023-08-30T04:52:26;21.40;88.00
40257;DHT22;25977;45.462;9.210;2023-08-30T04:54:54;21.40;88.20
40257;DHT22;25977;45.462;9.210;2023-08-30T04:57:22;21.40;87.90
40257;DHT22;25977;45.462;9.210;2023-08-30T04:59:48;21.30;87.60
40257;DHT22;25977;45.462;9.210;2023-08-30T05:02:14;21.40;87.00
40257;DHT22;25977;45.462;9.210;2023-08-30T05:05:00;21.40;86.90
40257;DHT22;25977;45.462;9.210;2023-08-30T05:07:26;21.40;87.60
40257;DHT22;25977;45.462;9.210;2023-08-30T05:09:52;21.40;88.20
40257;DHT22;25977;45.462;9.210;2023-08-30T05:12:18;21.30;86.90
40257;DHT22;25977;45.462;9.210;2023-08-30T05:14:43;21.40;86.50
40257;DHT22;25977;45.462;9.210;2023-08-30T05:17:09;21.40;86.80
40257;DHT22;25977;45.462;9.210;2023-08-30T05:19:35;21.30;86.50
40257;DHT22;25977;45.462;9.210;2023-08-30T05:22:04;21.40;86.90
40257;DHT22;25977;45.462;9.210;2023-08-30T05:24:30;21.40;86.50
40257;DHT22;25977;45.462;9.210;2023-08-30T05:26:56;21.40;86.50
40257;DHT22;25977;45.462;9.210;2023-08-30T05:29:25;21.40;85.60
40257;DHT22;25977;45.462;9.210;2023-08-30T05:31:51;21.30;85.80
40257;DHT22;25977;45.462;9.210;2023-08-30T05:34:39;21.10;86.50
40257;DHT22;25977;45.462;9.210;2023-08-30T05:37:08;21.20;86.70
40257;DHT22;25977;45.462;9.210;2023-08-30T05:39:51;21.40;86.70
40257;DHT22;25977;45.462;9.210;2023-08-30T05:42:17;21.40;86.40
40257;DHT22;25977;45.462;9.210;2023-08-30T05:44:43;21.40;86.10
40257;DHT22;25977;45.462;9.210;2023-08-30T05:47:08;21.50;86.10
40257;DHT22;25977;45.462;9.210;2023-08-30T05:49:40;21.60;85.70
40257;DHT22;25977;45.462;9.210;2023-08-30T05:52:06;21.70;85.70
40257;DHT22;25977;45.462;9.210;2023-08-30T05:54:32;21.80;85.00
40257;DHT22;25977;45.462;9.210;2023-08-30T05:56:59;21.90;84.20
40257;DHT22;25977;45.462;9.210;2023-08-30T05:59:25;22.00;83.80
40257;DHT22;25977;45.462;9.210;2023-08-30T06:01:51;22.10;83.30
40257;DHT22;25977;45.462;9.210;2023-08-30T06:04:16;22.30;82.80
40257;DHT22;25977;45.462;9.210;2023-08-30T06:06:42;22.40;82.80
40257;DHT22;25977;45.462;9.210;2023-08-30T06:09:08;22.90;82.00
40257;DHT22;25977;45.462;9.210;2023-08-30T06:11:33;23.70;80.30
40257;DHT22;25977;45.462;9.210;2023-08-30T06:13:59;24.50;78.50
40257;DHT22;25977;45.462;9.210;2023-08-30T06:16:25;25.20;77.10
40257;DHT22;25977;45.462;9.210;2023-08-30T06:18:50;25.60;76.00
40257;DHT22;25977;45.462;9.210;2023-08-30T06:21:16;25.60;75.40
40257;DHT22;25977;45.462;9.210;2023-08-30T06:23:48;26.20;75.00
40257;DHT22;25977;45.462;9.210;2023-08-30T06:26:13;27.20;73.30
40257;DHT22;25977;45.462;9.210;2023-08-30T06:28:39;28.10;71.60
40257;DHT22;25977;45.462;9.210;2023-08-30T06:31:05;29.00;70.10
40257;DHT22;25977;45.462;9.210;2023-08-30T06:33:30;29.60;69.00
40257;DHT22;25977;45.462;9.210;2023-08-30T06:35:56;30.30;67.60
40257;DHT22;25977;45.462;9.210;2023-08-30T06:38:22;30.70;66.80
40257;DHT22;25977;45.462;9.210;2023-08-30T06:40:47;31.10;65.40
40257;DHT22;25977;45.462;9.210;2023-08-30T06:43:13;31.30;64.90
40257;DHT22;25977;45.462;9.210;2023-08-30T06:45:39;31.50;64.80
40257;DHT22;25977;45.462;9.210;2023-08-30T06:48:06;31.70;64.10
40257;DHT22;25977;45.462;9.210;2023-08-30T06:50:33;31.80;63.80
40257;DHT22;25977;45.462;9.210;2023-08-30T06:52:59;32.00;63.90
40257;DHT22;25977;45.462;9.210;2023-08-30T06:55:24;32.30;63.30
40257;DHT22;25977;45.462;9.210;2023-08-30T06:57:50;32.50;62.80
40257;DHT22;25977;45.462;9.210;2023-08-30T07:00:17;32.80;62.60
40257;DHT22;25977;45.462;9.210;2023-08-30T07:02:43;33.10;62.30
40257;DHT22;25977;45.462;9.210;2023-08-30T07:05:14;33.20;62.20
40257;DHT22;25977;45.462;9.210;2023-08-30T07:07:40;33.30;61.90
40257;DHT22;25977;45.462;9.210;2023-08-30T07:10:06;33.30;61.90
40257;DHT22;25977;45.462;9.210;2023-08-30T07:12:32;33.40;61.90
40257;DHT22;25977;45.462;9.210;2023-08-30T07:14:57;33.60;61.90
40257;DHT22;25977;45.462;9.210;2023-08-30T07:17:23;33.60;61.70
40257;DHT22;25977;45.462;9.210;2023-08-30T07:19:49;33.60;61.40
40257;DHT22;25977;45.462;9.210;2023-08-30T07:22:15;33.60;61.50
40257;DHT22;25977;45.462;9.210;2023-08-30T07:24:44;33.40;61.50
40257;DHT22;25977;45.462;9.210;2023-08-30T07:27:10;33.00;62.50
40257;DHT22;25977;45.462;9.210;2023-08-30T07:29:38;32.40;63.10
40257;DHT22;25977;45.462;9.210;2023-08-30T07:32:07;31.80;64.00
40257;DHT22;25977;45.462;9.210;2023-08-30T07:34:33;31.30;64.90
40257;DHT22;25977;45.462;9.210;2023-08-30T07:36:58;30.70;65.10
40257;DHT22;25977;45.462;9.210;2023-08-30T07:39:24;30.20;66.10
40257;DHT22;25977;45.462;9.210;2023-08-30T07:41:50;29.70;66.70
40257;DHT22;25977;45.462;9.210;2023-08-30T07:44:15;29.20;67.70
40257;DHT22;25977;45.462;9.210;2023-08-30T07:46:41;29.00;68.10
40257;DHT22;25977;45.462;9.210;2023-08-30T07:49:07;28.70;68.60
40257;DHT22;25977;45.462;9.210;2023-08-30T07:51:33;28.60;68.80
40257;DHT22;25977;45.462;9.210;2023-08-30T07:53:59;28.40;68.70
40257;DHT22;25977;45.462;9.210;2023-08-30T07:56:24;28.40;68.80
40257;DHT22;25977;45.462;9.210;2023-08-30T07:58:51;28.20;69.20
40257;DHT22;25977;45.462;9.210;2023-08-30T08:01:16;28.20;69.50
40257;DHT22;25977;45.462;9.210;2023-08-30T08:03:42;28.10;69.20
40257;DHT22;25977;45.462;9.210;2023-08-30T08:06:08;28.10;69.30
40257;DHT22;25977;45.462;9.210;2023-08-30T08:08:34;28.00;69.50
40257;DHT22;25977;45.462;9.210;2023-08-30T08:11:00;27.90;69.20
40257;DHT22;25977;45.462;9.210;2023-08-30T08:13:25;27.80;69.00
40257;DHT22;25977;45.462;9.210;2023-08-30T08:15:51;27.80;69.00
40257;DHT22;25977;45.462;9.210;2023-08-30T08:18:17;27.90;68.80
40257;DHT22;25977;45.462;9.210;2023-08-30T08:20:42;27.80;69.00
40257;DHT22;25977;45.462;9.210;2023-08-30T08:23:08;27.70;68.80
40257;DHT22;25977;45.462;9.210;2023-08-30T08:25:34;27.60;68.50
40257;DHT22;25977;45.462;9.210;2023-08-30T08:28:00;27.70;68.80
40257;DHT22;25977;45.462;9.210;2023-08-30T08:30:25;27.80;68.30
40257;DHT22;25977;45.462;9.210;2023-08-30T08:32:51;27.80;67.80
40257;DHT22;25977;45.462;9.210;2023-08-30T08:35:17;27.70;67.90
40257;DHT22;25977;45.462;9.210;2023-08-30T08:37:43;27.80;67.50
40257;DHT22;25977;45.462;9.210;2023-08-30T08:40:09;27.90;66.70
40257;DHT22;25977;45.462;9.210;2023-08-30T08:42:36;27.90;66.60
40257;DHT22;25977;45.462;9.210;2023-08-30T08:45:03;27.90;66.60
40257;DHT22;25977;45.462;9.210;2023-08-30T08:47:32;28.00;66.40
40257;DHT22;25977;45.462;9.210;2023-08-30T08:49:58;28.10;66.90
40257;DHT22;25977;45.462;9.210;2023-08-30T08:52:25;28.00;67.30
40257;DHT22;25977;45.462;9.210;2023-08-30T08:54:51;28.00;67.80
40257;DHT22;25977;45.462;9.210;2023-08-30T08:57:17;27.90;67.70
40257;DHT22;25977;45.462;9.210;2023-08-30T08:59:44;28.00;68.10
40257;DHT22;25977;45.462;9.210;2023-08-30T09:02:13;27.70;68.20
40257;DHT22;25977;45.462;9.210;2023-08-30T09:04:39;27.80;68.30
40257;DHT22;25977;45.462;9.210;2023-08-30T09:07:05;27.90;67.70
40257;DHT22;25977;45.462;9.210;2023-08-30T09:09:31;28.00;67.40
40257;DHT22;25977;45.462;9.210;2023-08-30T09:11:56;28.20;67.50
40257;DHT22;25977;45.462;9.210;2023-08-30T09:14:22;28.10;67.20
40257;DHT22;25977;45.462;9.210;2023-08-30T09:17:00;28.10;66.50
40257;DHT22;25977;45.462;9.210;2023-08-30T09:19:27;28.30;66.30
40257;DHT22;25977;45.462;9.210;2023-08-30T09:21:57;28.30;65.80
40257;DHT22;25977;45.462;9.210;2023-08-30T09:24:23;28.30;65.80
40257;DHT22;25977;45.462;9.210;2023-08-30T09:26:51;27.90;65.70
40257;DHT22;25977;45.462;9.210;2023-08-30T09:29:18;27.50;66.60
40257;DHT22;25977;45.462;9.210;2023-08-30T09:31:44;27.70;67.20
40257;DHT22;25977;45.462;9.210;2023-08-30T09:34:10;27.90;66.40
40257;DHT22;25977;45.462;9.210;2023-08-30T09:36:38;27.90;65.90
40257;DHT22;25977;45.462;9.210;2023-08-30T09:39:05;28.00;66.00
40257;DHT22;25977;45.462;9.210;2023-08-30T09:41:31;28.10;65.40
40257;DHT22;25977;45.462;9.210;2023-08-30T09:43:59;28.10;65.00
40257;DHT22;25977;45.462;9.210;2023-08-30T09:46:25;27.80;64.90
40257;DHT22;25977;45.462;9.210;2023-08-30T09:48:53;27.30;65.10
40257;DHT22;25977;45.462;9.210;2023-08-30T09:51:20;27.30;64.60
40257;DHT22;25977;45.462;9.210;2023-08-30T09:53:51;27.30;64.90
40257;DHT22;25977;45.462;9.210;2023-08-30T09:56:18;27.50;64.40
40257;DHT22;25977;45.462;9.210;2023-08-30T09:58:45;27.60;64.10
40257;DHT22;25977;45.462;9.210;2023-08-30T10:01:11;27.60;64.30
40257;DHT22;25977;45.462;9.210;2023-08-30T10:03:37;27.70;63.80
40257;DHT22;25977;45.462;9.210;2023-08-30T10:06:03;27.70;63.60
40257;DHT22;25977;45.462;9.210;2023-08-30T10:08:32;27.70;64.00
40257;DHT22;25977;45.462;9.210;2023-08-30T10:10:59;27.80;64.40
40257;DHT22;25977;45.462;9.210;2023-08-30T10:13:25;27.90;64.10
40257;DHT22;25977;45.462;9.210;2023-08-30T10:15:56;28.10;64.20
40257;DHT22;25977;45.462;9.210;2023-08-30T10:18:25;28.20;64.20
40257;DHT22;25977;45.462;9.210;2023-08-30T10:20:55;28.20;64.30
40257;DHT22;25977;45.462;9.210;2023-08-30T10:23:22;28.10;63.80
40257;DHT22;25977;45.462;9.210;2023-08-30T10:25:50;28.10;64.00
40257;DHT22;25977;45.462;9.210;2023-08-30T10:28:19;27.90;63.30
40257;DHT22;25977;45.462;9.210;2023-08-30T10:30:45;27.70;63.70
40257;DHT22;25977;45.462;9.210;2023-08-30T10:33:14;27.80;64.10
40257;DHT22;25977;45.462;9.210;2023-08-30T10:35:49;27.90;64.10
40257;DHT22;25977;45.462;9.210;2023-08-30T10:38:27;27.90;64.20
40257;DHT22;25977;45.462;9.210;2023-08-30T10:40:54;27.70;64.40
40257;DHT22;25977;45.462;9.210;2023-08-30T10:43:30;27.60;64.80
40257;DHT22;25977;45.462;9.210;2023-08-30T10:46:01;27.70;64.00
40257;DHT22;25977;45.462;9.210;2023-08-30T10:48:45;27.60;64.20
40257;DHT22;25977;45.462;9.210;2023-08-30T10:51:41;27.50;64.40
40257;DHT22;25977;45.462;9.210;2023-08-30T10:54:14;27.40;64.60
40257;DHT22;25977;45.462;9.210;2023-08-30T10:56:57;27.30;64.30
40257;DHT22;25977;45.462;9.210;2023-08-30T10:59:25;27.20;64.50
40257;DHT22;25977;45.462;9.210;2023-08-30T11:01:51;27.30;64.00
40257;DHT22;25977;45.462;9.210;2023-08-30T11:04:18;27.40;63.30
40257;DHT22;25977;45.462;9.210;2023-08-30T11:06:45;27.50;63.40
40257;DHT22;25977;45.462;9.210;2023-08-30T11:09:18;27.50;63.00
40257;DHT22;25977;45.462;9.210;2023-08-30T11:11:44;27.60;62.80
40257;DHT22;25977;45.462;9.210;2023-08-30T11:14:11;27.60;62.60
40257;DHT22;25977;45.462;9.210;2023-08-30T11:16:37;27.30;62.00
40257;DHT22;25977;45.462;9.210;2023-08-30T11:19:04;27.30;62.20
40257;DHT22;25977;45.462;9.210;2023-08-30T11:21:33;27.10;62.40
40257;DHT22;25977;45.462;9.210;2023-08-30T11:23:59;27.20;61.90
40257;DHT22;25977;45.462;9.210;2023-08-30T11:26:25;27.40;61.70
40257;DHT22;25977;45.462;9.210;2023-08-30T11:28:51;27.10;62.10
40257;DHT22;25977;45.462;9.210;2023-08-30T11:31:26;27.20;61.70
40257;DHT22;25977;45.462;9.210;2023-08-30T11:33:53;27.30;61.70
40257;DHT22;25977;45.462;9.210;2023-08-30T11:36:21;27.40;62.10
40257;DHT22;25977;45.462;9.210;2023-08-30T11:38:50;27.50;62.30
40257;DHT22;25977;45.462;9.210;2023-08-30T11:41:16;27.50;62.40
40257;DHT22;25977;45.462;9.210;2023-08-30T11:43:43;27.60;61.80
40257;DHT22;25977;45.462;9.210;2023-08-30T11:46:09;27.40;62.30
40257;DHT22;25977;45.462;9.210;2023-08-30T11:48:35;27.50;63.10
40257;DHT22;25977;45.462;9.210;2023-08-30T11:51:01;27.50;62.60
40257;DHT22;25977;45.462;9.210;2023-08-30T11:53:27;27.60;62.40
40257;DHT22;25977;45.462;9.210;2023-08-30T11:55:53;27.60;62.40
40257;DHT22;25977;45.462;9.210;2023-08-30T11:58:19;27.60;62.20
40257;DHT22;25977;45.462;9.210;2023-08-30T12:00:45;27.60;61.20
40257;DHT22;25977;45.462;9.210;2023-08-30T12:03:15;27.70;60.90
40257;DHT22;25977;45.462;9.210;2023-08-30T12:05:48;27.60;61.10
40257;DHT22;25977;45.462;9.210;2023-08-30T12:08:32;27.70;61.40
40257;DHT22;25977;45.462;9.210;2023-08-30T12:10:58;27.70;61.60
40257;DHT22;25977;45.462;9.210;2023-08-30T12:15:54;27.70;61.10
40257;DHT22;25977;45.462;9.210;2023-08-30T12:18:24;27.70;61.30
40257;DHT22;25977;45.462;9.210;2023-08-30T12:20:58;27.60;61.50
40257;DHT22;25977;45.462;9.210;2023-08-30T12:23:25;27.40;61.40
40257;DHT22;25977;45.462;9.210;2023-08-30T12:28:23;27.50;61.70
40257;DHT22;25977;45.462;9.210;2023-08-30T12:30:48;27.50;61.30
40257;DHT22;25977;45.462;9.210;2023-08-30T12:33:16;27.00;61.10
40257;DHT22;25977;45.462;9.210;2023-08-30T12:35:42;27.20;61.40
40257;DHT22;25977;45.462;9.210;2023-08-30T12:38:07;27.30;61.10
40257;DHT22;25977;45.462;9.210;2023-08-30T12:40:35;27.40;61.60
40257;DHT22;25977;45.462;9.210;2023-08-30T12:43:01;27.30;61.10
40257;DHT22;25977;45.462;9.210;2023-08-30T12:45:27;27.40;60.50
40257;DHT22;25977;45.462;9.210;2023-08-30T12:47:52;27.40;60.80
40257;DHT22;25977;45.462;9.210;2023-08-30T12:50:18;27.20;60.80
40257;DHT22;25977;45.462;9.210;2023-08-30T12:52:43;27.30;60.80
40257;DHT22;25977;45.462;9.210;2023-08-30T12:55:09;27.30;61.10
40257;DHT22;25977;45.462;9.210;2023-08-30T12:57:35;27.40;61.20
40257;DHT22;25977;45.462;9.210;2023-08-30T13:00:00;27.20;60.70
40257;DHT22;25977;45.462;9.210;2023-08-30T13:02:26;27.20;60.90
40257;DHT22;25977;45.462;9.210;2023-08-30T13:04:51;27.30;61.00
40257;DHT22;25977;45.462;9.210;2023-08-30T13:07:17;27.00;61.00
40257;DHT22;25977;45.462;9.210;2023-08-30T13:09:43;27.00;60.80
40257;DHT22;25977;45.462;9.210;2023-08-30T13:12:08;27.20;60.60
40257;DHT22;25977;45.462;9.210;2023-08-30T13:14:34;27.20;60.20
40257;DHT22;25977;45.462;9.210;2023-08-30T13:17:00;27.40;60.50
40257;DHT22;25977;45.462;9.210;2023-08-30T13:19:26;27.50;60.00
40257;DHT22;25977;45.462;9.210;2023-08-30T13:21:51;27.50;60.00
40257;DHT22;25977;45.462;9.210;2023-08-30T13:24:17;27.70;60.20
40257;DHT22;25977;45.462;9.210;2023-08-30T13:26:43;27.40;59.40
40257;DHT22;25977;45.462;9.210;2023-08-30T13:29:08;27.50;59.60
40257;DHT22;25977;45.462;9.210;2023-08-30T13:31:34;27.20;59.30
40257;DHT22;25977;45.462;9.210;2023-08-30T13:34:00;27.30;59.40
40257;DHT22;25977;45.462;9.210;2023-08-30T13:36:25;27.30;59.30
40257;DHT22;25977;45.462;9.210;2023-08-30T13:38:51;27.40;59.20
40257;DHT22;25977;45.462;9.210;2023-08-30T13:41:18;27.30;59.30
40257;DHT22;25977;45.462;9.210;2023-08-30T13:43:44;27.50;59.80
40257;DHT22;25977;45.462;9.210;2023-08-30T13:46:09;27.50;59.10
40257;DHT22;25977;45.462;9.210;2023-08-30T13:48:36;27.50;59.60
40257;DHT22;25977;45.462;9.210;2023-08-30T13:51:01;27.70;59.20
40257;DHT22;25977;45.462;9.210;2023-08-30T13:53:27;27.80;58.90
40257;DHT22;25977;45.462;9.210;2023-08-30T13:55:53;27.60;57.20
40257;DHT22;25977;45.462;9.210;2023-08-30T13:58:19;27.50;58.10
40257;DHT22;25977;45.462;9.210;2023-08-30T14:00:45;27.60;58.30
40257;DHT22;25977;45.462;9.210;2023-08-30T14:03:11;27.60;58.40
40257;DHT22;25977;45.462;9.210;2023-08-30T14:05:37;27.60;58.60
40257;DHT22;25977;45.462;9.210;2023-08-30T14:08:06;27.70;58.30
40257;DHT22;25977;45.462;9.210;2023-08-30T14:10:32;27.70;58.00
40257;DHT22;25977;45.462;9.210;2023-08-30T14:12:58;27.30;58.90
40257;DHT22;25977;45.462;9.210;2023-08-30T14:15:24;27.40;58.50
40257;DHT22;25977;45.462;9.210;2023-08-30T14:17:49;27.50;58.30
40257;DHT22;25977;45.462;9.210;2023-08-30T14:20:15;27.60;58.20
40257;DHT22;25977;45.462;9.210;2023-08-30T14:22:41;27.20;57.90
40257;DHT22;25977;45.462;9.210;2023-08-30T14:25:07;27.20;58.20
40257;DHT22;25977;45.462;9.210;2023-08-30T14:27:32;27.20;58.00
40257;DHT22;25977;45.462;9.210;2023-08-30T14:29:58;27.20;57.70
40257;DHT22;25977;45.462;9.210;2023-08-30T14:32:25;27.00;57.40
40257;DHT22;25977;45.462;9.210;2023-08-30T14:34:51;27.10;57.70
40257;DHT22;25977;45.462;9.210;2023-08-30T14:37:17;27.20;57.80
40257;DHT22;25977;45.462;9.210;2023-08-30T14:39:42;27.20;58.10
40257;DHT22;25977;45.462;9.210;2023-08-30T14:42:08;27.20;57.90
40257;DHT22;25977;45.462;9.210;2023-08-30T14:44:33;27.30;57.80
40257;DHT22;25977;45.462;9.210;2023-08-30T14:46:59;27.20;58.10
40257;DHT22;25977;45.462;9.210;2023-08-30T14:49:25;27.30;58.00
40257;DHT22;25977;45.462;9.210;2023-08-30T14:51:50;27.20;57.80
40257;DHT22;25977;45.462;9.210;2023-08-30T14:54:16;27.20;57.50
40257;DHT22;25977;45.462;9.210;2023-08-30T14:56:41;27.20;57.50
40257;DHT22;25977;45.462;9.210;2023-08-30T14:59:07;27.20;57.80
40257;DHT22;25977;45.462;9.210;2023-08-30T15:01:33;27.20;57.50
40257;DHT22;25977;45.462;9.210;2023-08-30T15:03:58;27.20;57.40
40257;DHT22;25977;45.462;9.210;2023-08-30T15:06:24;27.20;57.50
40257;DHT22;25977;45.462;9.210;2023-08-30T15:08:50;27.10;57.70
40257;DHT22;25977;45.462;9.210;2023-08-30T15:11:15;27.00;58.00
40257;DHT22;25977;45.462;9.210;2023-08-30T15:13:41;27.10;58.00
40257;DHT22;25977;45.462;9.210;2023-08-30T15:16:06;27.00;57.90
40257;DHT22;25977;45.462;9.210;2023-08-30T15:18:32;27.10;57.80
40257;DHT22;25977;45.462;9.210;2023-08-30T15:20:58;27.10;57.90
40257;DHT22;25977;45.462;9.210;2023-08-30T15:23:25;27.10;57.70
40257;DHT22;25977;45.462;9.210;2023-08-30T15:25:51;27.20;58.10
40257;DHT22;25977;45.462;9.210;2023-08-30T15:28:16;27.20;57.90
40257;DHT22;25977;45.462;9.210;2023-08-30T15:30:43;27.00;57.50
40257;DHT22;25977;45.462;9.210;2023-08-30T15:33:09;27.10;57.80
40257;DHT22;25977;45.462;9.210;2023-08-30T15:35:39;27.10;57.90